createdAt,value
2018-12-18T00:03:09.822Z,86.22
2018-12-18T00:08:12.478Z,85.92
2018-12-18T00:13:15.099Z,85.87
2018-12-18T00:18:17.797Z,85.89
2018-12-18T00:23:20.892Z,85.96
2018-12-18T00:28:23.717Z,85.93
2018-12-18T00:33:26.693Z,85.83
2018-12-18T00:38:29.370Z,86.09
2018-12-18T00:43:32.120Z,85.85
2018-12-18T00:48:34.838Z,86.33
2018-12-18T00:53:37.618Z,86.51
2018-12-18T00:58:40.245Z,86.29
2018-12-18T01:03:42.823Z,85.52
2018-12-18T01:08:46.095Z,85.76
2018-12-18T01:13:48.631Z,85.52
2018-12-18T01:18:51.286Z,86.08
2018-12-18T01:23:53.844Z,86.03
2018-12-18T01:28:56.483Z,86.43
2018-12-18T01:33:59.509Z,85.96
2018-12-18T01:39:02.509Z,86.67
2018-12-18T01:44:05.312Z,86.15
2018-12-18T01:49:08.108Z,86.49
2018-12-18T01:54:10.829Z,85.70
2018-12-18T01:59:13.558Z,86.01
2018-12-18T02:04:16.304Z,85.25
2018-12-18T02:09:19.521Z,85.38
2018-12-18T02:14:22.179Z,85.59
2018-12-18T02:19:24.769Z,85.54
2018-12-18T02:24:27.371Z,85.57
2018-12-18T02:29:30.061Z,85.24
2018-12-18T02:34:33.257Z,85.58
2018-12-18T02:39:36.072Z,85.74
2018-12-18T02:44:38.815Z,85.05
2018-12-18T02:49:41.861Z,85.13
2018-12-18T02:54:44.445Z,85.22
2018-12-18T02:59:47.188Z,84.70
2018-12-18T03:04:49.794Z,84.91
2018-12-18T03:09:52.354Z,84.59
2018-12-18T03:14:55.190Z,85.12
2018-12-18T03:19:57.787Z,85.52
2018-12-18T03:25:00.375Z,85.52
2018-12-18T03:30:03.067Z,85.24
2018-12-18T03:35:05.872Z,85.60
2018-12-18T03:40:08.538Z,85.23
2018-12-18T03:45:11.984Z,84.84
2018-12-18T03:50:14.802Z,85.17
2018-12-18T03:55:17.513Z,85.04
2018-12-18T04:00:20.130Z,85.72
2018-12-18T04:05:22.891Z,85.31
2018-12-18T04:10:26.312Z,85.36
2018-12-18T04:15:28.896Z,84.63
2018-12-18T04:20:31.457Z,85.11
2018-12-18T04:25:34.017Z,85.18
2018-12-18T04:30:36.674Z,84.99
2018-12-18T04:35:39.980Z,84.87
2018-12-18T04:40:43.415Z,85.11
2018-12-18T04:45:48.316Z,84.81
2018-12-18T04:50:51.018Z,85.60
2018-12-18T04:55:53.580Z,85.34
2018-12-18T05:00:56.352Z,85.20
2018-12-18T05:05:59.146Z,85.55
2018-12-18T05:11:02.493Z,85.25
2018-12-18T05:16:05.263Z,85.30
2018-12-18T05:21:07.967Z,85.20
2018-12-18T05:26:10.623Z,85.00
2018-12-18T05:31:13.461Z,85.46
2018-12-18T05:36:16.089Z,85.13
2018-12-18T05:41:18.837Z,84.63
2018-12-18T05:46:21.531Z,84.28
2018-12-18T05:51:25.486Z,84.20
2018-12-18T05:56:28.159Z,84.94
2018-12-18T06:01:30.770Z,85.63
2018-12-18T06:06:33.362Z,86.04
2018-12-18T06:11:36.067Z,85.53
2018-12-18T06:16:38.724Z,86.03
2018-12-18T06:21:42.099Z,86.10
2018-12-18T06:26:44.649Z,86.12
2018-12-18T06:31:47.467Z,85.77
2018-12-18T06:36:50.041Z,85.41
2018-12-18T06:41:52.762Z,85.59
2018-12-18T06:46:55.376Z,86.05
2018-12-18T06:51:58.159Z,85.36
2018-12-18T06:57:00.756Z,85.52
2018-12-18T07:02:03.554Z,85.88
2018-12-18T07:07:06.623Z,86.15
2018-12-18T07:12:09.579Z,86.03
2018-12-18T07:17:12.268Z,86.00
2018-12-18T07:22:15.060Z,86.02
2018-12-18T07:27:17.770Z,85.92
2018-12-18T07:32:20.443Z,86.03
2018-12-18T07:37:23.748Z,85.63
2018-12-18T07:42:26.353Z,85.38
2018-12-18T07:47:29.055Z,84.38
2018-12-18T07:52:31.866Z,85.54
2018-12-18T07:57:34.440Z,84.54
2018-12-18T08:02:37.354Z,84.09
2018-12-18T08:07:40.156Z,84.35
2018-12-18T08:12:42.837Z,84.48
2018-12-18T08:17:45.485Z,84.01
2018-12-18T08:22:48.076Z,84.28
2018-12-18T08:27:51.337Z,84.27
2018-12-18T08:32:53.940Z,84.40
2018-12-18T08:37:56.706Z,84.93
2018-12-18T08:42:59.448Z,84.45
2018-12-18T08:48:02.076Z,83.83
2018-12-18T08:53:05.112Z,84.25
2018-12-18T08:58:07.835Z,83.32
2018-12-18T09:03:10.955Z,84.32
2018-12-18T09:08:13.630Z,84.87
2018-12-18T09:13:16.221Z,82.71
2018-12-18T09:18:19.047Z,83.31
2018-12-18T09:23:21.846Z,81.50
2018-12-18T09:28:25.034Z,80.82
2018-12-18T09:33:27.886Z,81.49
2018-12-18T09:38:36.022Z,81.82
2018-12-18T09:43:45.161Z,82.48
2018-12-18T09:48:47.724Z,80.44
2018-12-18T09:53:50.524Z,80.22
2018-12-18T09:58:53.707Z,78.89
2018-12-18T10:03:56.439Z,78.62
2018-12-18T10:08:59.126Z,77.96
2018-12-18T10:14:02.193Z,77.10
2018-12-18T10:19:04.837Z,77.06
2018-12-18T10:24:07.567Z,77.85
2018-12-18T10:29:10.216Z,76.67
2018-12-18T10:34:12.815Z,76.33
2018-12-18T10:39:15.453Z,75.42
2018-12-18T10:44:18.100Z,74.95
2018-12-18T10:49:20.832Z,75.41
2018-12-18T10:54:23.490Z,75.14
2018-12-18T10:59:26.313Z,74.42
2018-12-18T11:04:29.212Z,74.57
2018-12-18T11:09:31.801Z,74.41
2018-12-18T11:14:34.606Z,74.16
2018-12-18T11:19:37.301Z,74.83
2018-12-18T11:24:40.599Z,74.08
2018-12-18T11:29:43.872Z,73.90
2018-12-18T11:34:46.586Z,73.69
2018-12-18T11:39:49.289Z,73.57
2018-12-18T11:44:52.011Z,73.42
2018-12-18T11:49:54.921Z,73.14
2018-12-18T11:54:57.748Z,72.64
2018-12-18T12:00:00.367Z,72.77
2018-12-18T12:05:02.918Z,72.93
2018-12-18T12:10:06.325Z,72.70
2018-12-18T12:15:09.126Z,72.93
2018-12-18T12:20:11.765Z,74.22
2018-12-18T12:25:14.524Z,74.87
2018-12-18T12:30:17.121Z,75.81
2018-12-18T12:35:19.737Z,76.62
2018-12-18T12:40:23.226Z,76.92
2018-12-18T12:45:26.130Z,76.58
2018-12-18T12:50:28.798Z,77.71
2018-12-18T12:55:32.215Z,77.12
2018-12-18T13:00:34.947Z,77.93
2018-12-18T13:05:37.708Z,76.08
2018-12-18T13:10:41.049Z,74.56
2018-12-18T13:15:43.658Z,74.27
2018-12-18T13:20:46.386Z,74.17
2018-12-18T13:25:49.576Z,73.76
2018-12-18T13:30:52.353Z,74.67
2018-12-18T13:35:55.154Z,75.09
2018-12-18T13:40:57.802Z,76.07
2018-12-18T13:46:00.542Z,77.14
2018-12-18T13:51:03.241Z,77.68
2018-12-18T13:56:05.864Z,78.27
2018-12-18T14:01:08.434Z,78.39
2018-12-18T14:06:11.018Z,78.22
2018-12-18T14:11:13.652Z,79.17
2018-12-18T14:16:16.203Z,79.18
2018-12-18T14:21:18.796Z,79.64
2018-12-18T14:26:21.356Z,79.70
2018-12-18T14:31:23.958Z,80.37
2018-12-18T14:36:26.556Z,80.01
2018-12-18T14:41:29.871Z,82.92
2018-12-18T14:46:32.446Z,81.84
2018-12-18T14:51:35.097Z,82.53
2018-12-18T14:56:37.657Z,82.96
2018-12-18T15:01:40.253Z,83.56
2018-12-18T15:06:43.511Z,82.67
2018-12-18T15:11:46.687Z,82.93
2018-12-18T15:16:49.620Z,83.61
2018-12-18T15:21:52.209Z,84.16
2018-12-18T15:26:55.160Z,84.36
2018-12-18T15:31:57.804Z,84.16
2018-12-18T15:37:00.447Z,84.88
2018-12-18T15:42:04.126Z,84.41
2018-12-18T15:47:06.946Z,84.94
2018-12-18T15:52:10.143Z,84.80
2018-12-18T15:57:13.018Z,85.21
2018-12-18T16:02:15.836Z,84.47
2018-12-18T16:07:18.604Z,84.67
2018-12-18T16:12:21.901Z,84.69
2018-12-18T16:17:24.657Z,85.09
2018-12-18T16:22:27.302Z,85.37
2018-12-18T16:27:30.456Z,85.37
2018-12-18T16:32:33.369Z,85.62
2018-12-18T16:37:36.159Z,86.24
2018-12-18T16:42:38.965Z,86.05
2018-12-18T16:47:41.764Z,85.50
2018-12-18T16:52:44.478Z,85.30
2018-12-18T16:57:48.026Z,86.97
2018-12-18T17:02:50.741Z,86.76
2018-12-18T17:07:53.353Z,86.00
2018-12-18T17:12:56.249Z,87.36
2018-12-18T17:17:59.523Z,87.22
2018-12-18T17:23:02.172Z,87.10
2018-12-18T17:28:04.931Z,87.94
2018-12-18T17:33:07.576Z,87.46
2018-12-18T17:38:10.245Z,87.74
2018-12-18T17:43:13.169Z,87.59
2018-12-18T17:48:15.788Z,87.96
2018-12-18T17:53:18.330Z,87.69
2018-12-18T17:58:20.917Z,88.02
2018-12-18T18:03:23.661Z,87.16
2018-12-18T18:08:26.353Z,86.19
2018-12-18T18:13:28.920Z,87.71
2018-12-18T18:18:31.591Z,86.15
2018-12-18T18:23:34.221Z,86.51
2018-12-18T18:28:37.079Z,85.86
2018-12-18T18:33:39.803Z,86.58
2018-12-18T18:38:42.780Z,85.53
2018-12-18T18:43:45.377Z,85.56
2018-12-18T18:48:47.990Z,85.51
2018-12-18T18:53:50.878Z,86.51
2018-12-18T18:58:53.533Z,85.93
2018-12-18T19:03:56.153Z,85.86
2018-12-18T19:08:58.751Z,85.90
2018-12-18T19:14:01.313Z,86.27
2018-12-18T19:19:04.678Z,86.00
2018-12-18T19:24:07.492Z,86.08
2018-12-18T19:29:10.538Z,85.63
2018-12-18T19:34:13.447Z,85.61
2018-12-18T19:39:16.753Z,85.72
2018-12-18T19:44:19.655Z,86.23
2018-12-18T19:49:22.564Z,85.46
2018-12-18T19:54:26.281Z,85.69
2018-12-18T19:59:30.408Z,86.27
2018-12-18T20:04:34.444Z,86.42
2018-12-18T20:09:37.437Z,86.12
2018-12-18T20:14:40.654Z,85.34
2018-12-18T20:19:44.688Z,86.51
2018-12-18T20:24:47.684Z,85.71
2018-12-18T20:29:52.419Z,85.61
2018-12-18T20:34:56.328Z,85.85
2018-12-18T20:39:58.963Z,86.77
2018-12-18T20:45:01.542Z,85.57
2018-12-18T20:50:05.181Z,86.24
2018-12-18T20:55:07.863Z,86.42
2018-12-18T21:00:10.800Z,85.63
2018-12-18T21:05:14.279Z,86.11
2018-12-18T21:10:17.646Z,86.08
2018-12-18T21:15:20.291Z,85.46
2018-12-18T21:20:24.145Z,86.50
2018-12-18T21:25:27.338Z,85.56
2018-12-18T21:30:30.003Z,86.84
2018-12-18T21:35:32.887Z,85.69
2018-12-18T21:40:36.228Z,85.50
2018-12-18T21:45:39.097Z,85.51
2018-12-18T21:50:42.044Z,85.22
2018-12-18T21:55:44.684Z,85.93
2018-12-18T22:00:47.945Z,85.56
2018-12-18T22:05:50.639Z,85.37
2018-12-18T22:10:53.200Z,85.51
2018-12-18T22:15:56.561Z,84.48
2018-12-18T22:20:59.333Z,85.98
2018-12-18T22:26:02.168Z,86.58
2018-12-18T22:31:05.793Z,86.02
2018-12-18T22:36:08.394Z,86.56
2018-12-18T22:41:11.037Z,86.43
2018-12-18T22:46:15.366Z,86.42
2018-12-18T22:51:19.085Z,86.10
2018-12-18T22:56:21.887Z,85.49
2018-12-18T23:01:30.358Z,85.42
2018-12-18T23:06:33.258Z,85.47
2018-12-18T23:11:35.858Z,85.10
2018-12-18T23:16:38.577Z,85.30
2018-12-18T23:21:41.309Z,85.04
2018-12-18T23:26:43.909Z,84.48
2018-12-18T23:31:46.740Z,84.17
2018-12-18T23:36:49.617Z,84.14
2018-12-18T23:41:52.436Z,84.53
2018-12-18T23:46:55.790Z,84.43
2018-12-18T23:51:58.494Z,84.02
2018-12-18T23:57:01.171Z,83.86
